createdAt,value
2023-05-05T00:00:31.928Z,1007.70
2023-05-05T00:01:31.881Z,1007.73
2023-05-05T00:02:31.955Z,1007.75
2023-05-05T00:03:31.927Z,1007.75
2023-05-05T00:04:31.852Z,1007.73
2023-05-05T00:05:31.867Z,1007.72
2023-05-05T00:06:31.826Z,1007.74
2023-05-05T00:07:31.815Z,1007.74
2023-05-05T00:08:31.813Z,1007.76
2023-05-05T00:09:31.791Z,1007.72
2023-05-05T00:10:31.781Z,1007.71
2023-05-05T00:11:31.810Z,1007.68
2023-05-05T00:12:31.813Z,1007.62
2023-05-05T00:13:31.745Z,1007.65
2023-05-05T00:14:31.782Z,1007.65
2023-05-05T00:15:31.717Z,1007.66
2023-05-05T00:16:33.100Z,1007.70
2023-05-05T00:17:31.744Z,1007.69
2023-05-05T00:18:31.691Z,1007.61
2023-05-05T00:19:31.742Z,1007.59
2023-05-05T00:20:31.707Z,1007.62
2023-05-05T00:21:31.657Z,1007.61
2023-05-05T00:22:31.659Z,1007.64
2023-05-05T00:23:31.630Z,1007.66
2023-05-05T00:24:31.640Z,1007.66
2023-05-05T00:25:31.646Z,1007.64
2023-05-05T00:26:31.606Z,1007.54
2023-05-05T00:27:31.595Z,1007.57
2023-05-05T00:28:31.631Z,1007.57
2023-05-05T00:29:31.599Z,1007.52
2023-05-05T00:30:31.613Z,1007.56
2023-05-05T00:31:31.630Z,1007.60
2023-05-05T00:32:31.610Z,1007.56
2023-05-05T00:33:31.543Z,1007.53
2023-05-05T00:34:31.515Z,1007.52
2023-05-05T00:35:31.515Z,1007.53
2023-05-05T00:36:31.507Z,1007.54
2023-05-05T00:37:31.529Z,1007.53
2023-05-05T00:38:31.476Z,1007.52
2023-05-05T00:39:31.463Z,1007.51
2023-05-05T00:40:31.470Z,1007.50
2023-05-05T00:41:31.536Z,1007.54
2023-05-05T00:42:31.499Z,1007.56
2023-05-05T00:43:31.487Z,1007.57
2023-05-05T00:44:31.486Z,1007.58
2023-05-05T00:45:31.408Z,1007.54
2023-05-05T00:46:31.422Z,1007.56
2023-05-05T00:47:31.444Z,1007.54
2023-05-05T00:48:31.363Z,1007.55
2023-05-05T00:49:31.462Z,1007.52
2023-05-05T00:50:31.358Z,1007.54
2023-05-05T00:51:31.337Z,1007.56
2023-05-05T00:52:31.358Z,1007.52
2023-05-05T00:53:31.319Z,1007.54
2023-05-05T00:54:31.388Z,1007.54
2023-05-05T00:55:31.315Z,1007.50
2023-05-05T00:56:31.285Z,1007.50
2023-05-05T00:57:31.271Z,1007.52
2023-05-05T00:58:31.280Z,1007.50
2023-05-05T00:59:31.291Z,1007.51
2023-05-05T01:00:31.242Z,1007.48
2023-05-05T01:01:31.300Z,1007.47
2023-05-05T01:02:31.424Z,1007.44
2023-05-05T01:03:31.290Z,1007.42
2023-05-05T01:04:31.256Z,1007.44
2023-05-05T01:05:31.183Z,1007.42
2023-05-05T01:06:31.180Z,1007.42
2023-05-05T01:07:31.152Z,1007.39
2023-05-05T01:08:31.160Z,1007.40
2023-05-05T01:09:31.160Z,1007.39
2023-05-05T01:10:31.142Z,1007.35
2023-05-05T01:11:31.115Z,1007.33
2023-05-05T01:12:31.132Z,1007.35
2023-05-05T01:13:31.092Z,1007.35
2023-05-05T01:14:31.118Z,1007.30
2023-05-05T01:15:31.101Z,1007.29
2023-05-05T01:16:31.122Z,1007.29
2023-05-05T01:17:31.086Z,1007.29
2023-05-05T01:18:31.233Z,1007.33
2023-05-05T01:19:31.048Z,1007.35
2023-05-05T01:20:31.030Z,1007.34
2023-05-05T01:21:31.039Z,1007.34
2023-05-05T01:22:31.005Z,1007.35
2023-05-05T01:23:31.030Z,1007.35
2023-05-05T01:24:31.046Z,1007.35
2023-05-05T01:25:31.041Z,1007.39
2023-05-05T01:26:31.026Z,1007.40
2023-05-05T01:27:31.014Z,1007.40
2023-05-05T01:28:31.066Z,1007.41
2023-05-05T01:29:30.948Z,1007.42
2023-05-05T01:30:30.924Z,1007.37
2023-05-05T01:31:30.928Z,1007.37
2023-05-05T01:32:31.220Z,1007.40
2023-05-05T01:33:30.883Z,1007.38
2023-05-05T01:34:30.874Z,1007.37
2023-05-05T01:35:30.895Z,1007.41
2023-05-05T01:36:30.848Z,1007.38
2023-05-05T01:37:30.841Z,1007.40
2023-05-05T01:38:30.827Z,1007.40
2023-05-05T01:39:30.820Z,1007.41
2023-05-05T01:40:30.852Z,1007.38
2023-05-05T01:41:30.800Z,1007.42
2023-05-05T01:42:30.784Z,1007.39
2023-05-05T01:43:30.832Z,1007.39
2023-05-05T01:44:30.763Z,1007.40
2023-05-05T01:45:30.759Z,1007.39
2023-05-05T01:46:30.765Z,1007.44
2023-05-05T01:47:30.745Z,1007.45
2023-05-05T01:48:30.710Z,1007.44
2023-05-05T01:49:30.716Z,1007.47
2023-05-05T01:50:30.734Z,1007.48
2023-05-05T01:51:30.695Z,1007.47
2023-05-05T01:52:30.779Z,1007.47
2023-05-05T01:53:30.672Z,1007.47
2023-05-05T01:54:30.654Z,1007.48
2023-05-05T01:55:30.678Z,1007.49
2023-05-05T01:56:30.666Z,1007.48
2023-05-05T01:57:30.644Z,1007.48
2023-05-05T01:58:30.599Z,1007.53
2023-05-05T01:59:30.591Z,1007.51
2023-05-05T02:00:30.580Z,1007.51
2023-05-05T02:01:30.754Z,1007.48
2023-05-05T02:02:30.707Z,1007.44
2023-05-05T02:03:30.592Z,1007.45
2023-05-05T02:04:30.538Z,1007.45
2023-05-05T02:05:30.535Z,1007.43
2023-05-05T02:06:30.524Z,1007.40
2023-05-05T02:07:30.509Z,1007.42
2023-05-05T02:08:30.673Z,1007.49
2023-05-05T02:09:30.526Z,1007.45
2023-05-05T02:10:30.473Z,1007.48
2023-05-05T02:11:30.468Z,1007.52
2023-05-05T02:12:30.494Z,1007.51
2023-05-05T02:13:30.521Z,1007.53
2023-05-05T02:14:30.438Z,1007.52
2023-05-05T02:15:30.484Z,1007.54
2023-05-05T02:16:30.414Z,1007.56
2023-05-05T02:17:30.458Z,1007.59
2023-05-05T02:18:30.396Z,1007.58
2023-05-05T02:19:30.435Z,1007.60
2023-05-05T02:20:30.362Z,1007.63
2023-05-05T02:21:30.398Z,1007.56
2023-05-05T02:22:30.371Z,1007.57
2023-05-05T02:23:30.349Z,1007.57
2023-05-05T02:24:30.329Z,1007.62
2023-05-05T02:25:30.307Z,1007.55
2023-05-05T02:26:30.317Z,1007.60
2023-05-05T02:27:30.326Z,1007.62
2023-05-05T02:28:30.293Z,1007.60
2023-05-05T02:29:30.283Z,1007.62
2023-05-05T02:30:30.269Z,1007.63
2023-05-05T02:31:30.323Z,1007.62
2023-05-05T02:32:30.322Z,1007.61
2023-05-05T02:33:30.232Z,1007.59
2023-05-05T02:34:30.223Z,1007.63
2023-05-05T02:35:30.255Z,1007.59
2023-05-05T02:36:30.199Z,1007.64
2023-05-05T02:37:30.186Z,1007.69
2023-05-05T02:38:30.184Z,1007.70
2023-05-05T02:39:30.190Z,1007.70
2023-05-05T02:40:30.188Z,1007.68
2023-05-05T02:41:30.161Z,1007.73
2023-05-05T02:42:30.149Z,1007.72
2023-05-05T02:43:30.129Z,1007.74
2023-05-05T02:44:30.142Z,1007.72
2023-05-05T02:45:30.143Z,1007.75
2023-05-05T02:46:30.139Z,1007.75
2023-05-05T02:47:30.155Z,1007.74
2023-05-05T02:48:30.136Z,1007.72
2023-05-05T02:49:30.094Z,1007.78
2023-05-05T02:50:30.059Z,1007.75
2023-05-05T02:51:30.055Z,1007.84
2023-05-05T02:52:30.021Z,1007.83
2023-05-05T02:53:30.008Z,1007.86
2023-05-05T02:54:30.048Z,1007.87
2023-05-05T02:55:29.992Z,1007.88
2023-05-05T02:56:29.990Z,1007.91
2023-05-05T02:57:30.004Z,1007.91
2023-05-05T02:58:29.960Z,1007.90
2023-05-05T02:59:29.969Z,1007.89
2023-05-05T03:00:29.941Z,1007.90
2023-05-05T03:01:29.972Z,1007.91
2023-05-05T03:02:29.993Z,1007.91
2023-05-05T03:03:30.031Z,1007.91
2023-05-05T03:04:29.917Z,1007.90
2023-05-05T03:05:29.892Z,1007.96
2023-05-05T03:06:29.870Z,1007.90
2023-05-05T03:07:29.860Z,1007.99
2023-05-05T03:08:29.906Z,1007.98
2023-05-05T03:09:29.866Z,1007.98
2023-05-05T03:10:29.845Z,1007.95
2023-05-05T03:11:29.870Z,1008.03
2023-05-05T03:12:29.935Z,1008.03
2023-05-05T03:13:29.839Z,1008.03
2023-05-05T03:14:32.108Z,1008.01
2023-05-05T03:15:29.789Z,1007.97
2023-05-05T03:16:29.801Z,1007.95
2023-05-05T03:17:29.783Z,1007.99
2023-05-05T03:18:29.827Z,1008.01
2023-05-05T03:19:29.772Z,1008.03
2023-05-05T03:20:29.727Z,1008.05
2023-05-05T03:21:29.712Z,1008.06
2023-05-05T03:22:29.705Z,1008.09
2023-05-05T03:23:29.704Z,1008.07
2023-05-05T03:24:29.734Z,1008.06
2023-05-05T03:25:29.672Z,1008.07
2023-05-05T03:26:29.650Z,1008.09
2023-05-05T03:27:29.650Z,1008.13
2023-05-05T03:28:29.651Z,1008.06
2023-05-05T03:29:29.623Z,1008.07
2023-05-05T03:30:29.644Z,1008.06
2023-05-05T03:31:29.643Z,1008.12
2023-05-05T03:32:29.635Z,1008.15
2023-05-05T03:33:29.577Z,1008.14
2023-05-05T03:34:29.565Z,1008.11
2023-05-05T03:35:29.564Z,1008.14
2023-05-05T03:36:29.627Z,1008.16
2023-05-05T03:37:29.648Z,1008.17
2023-05-05T03:38:29.598Z,1008.19
2023-05-05T03:39:29.509Z,1008.21
2023-05-05T03:40:40.323Z,1008.19
2023-05-05T03:41:30.511Z,1008.20
2023-05-05T03:42:29.473Z,1008.16
2023-05-05T03:43:29.474Z,1008.17
2023-05-05T03:44:29.482Z,1008.16
2023-05-05T03:45:29.517Z,1008.15
2023-05-05T03:46:29.439Z,1008.14
2023-05-05T03:47:29.460Z,1008.11
2023-05-05T03:48:29.451Z,1008.08
2023-05-05T03:49:29.446Z,1008.08
2023-05-05T03:50:29.403Z,1008.07
2023-05-05T03:51:29.393Z,1008.08
2023-05-05T03:52:29.376Z,1008.08
2023-05-05T03:53:29.383Z,1008.12
2023-05-05T03:54:29.350Z,1008.13
2023-05-05T03:55:29.374Z,1008.17
2023-05-05T03:56:29.363Z,1008.17
2023-05-05T03:57:29.330Z,1008.18
2023-05-05T03:58:29.326Z,1008.17
2023-05-05T03:59:29.304Z,1008.20
2023-05-05T04:00:29.294Z,1008.17
2023-05-05T04:01:29.311Z,1008.14
2023-05-05T04:02:29.349Z,1008.17
2023-05-05T04:03:29.338Z,1008.19
2023-05-05T04:04:29.328Z,1008.19
2023-05-05T04:05:29.272Z,1008.23
2023-05-05T04:06:29.217Z,1008.20
2023-05-05T04:07:29.221Z,1008.20
2023-05-05T04:08:29.248Z,1008.21
2023-05-05T04:09:29.199Z,1008.26
2023-05-05T04:10:29.205Z,1008.24
2023-05-05T04:11:29.183Z,1008.21
2023-05-05T04:12:29.161Z,1008.24
2023-05-05T04:13:29.152Z,1008.20
2023-05-05T04:14:29.142Z,1008.18
2023-05-05T04:15:29.128Z,1008.24
2023-05-05T04:16:31.196Z,1008.22
2023-05-05T04:17:29.130Z,1008.19
2023-05-05T04:18:29.101Z,1008.17
2023-05-05T04:19:29.081Z,1008.12
2023-05-05T04:20:29.100Z,1008.18
2023-05-05T04:21:29.064Z,1008.11
2023-05-05T04:22:29.047Z,1008.16
2023-05-05T04:23:29.067Z,1008.15
2023-05-05T04:24:29.030Z,1008.22
2023-05-05T04:25:29.013Z,1008.21
2023-05-05T04:26:29.043Z,1008.19
2023-05-05T04:27:28.996Z,1008.22
2023-05-05T04:28:29.034Z,1008.27
2023-05-05T04:29:28.978Z,1008.18
2023-05-05T04:30:28.968Z,1008.20
2023-05-05T04:31:29.113Z,1008.23
2023-05-05T04:32:29.017Z,1008.20
2023-05-05T04:33:28.935Z,1008.24
2023-05-05T04:34:28.925Z,1008.20
2023-05-05T04:35:28.917Z,1008.24
2023-05-05T04:36:28.909Z,1008.27
2023-05-05T04:37:28.990Z,1008.34
2023-05-05T04:38:28.914Z,1008.36
2023-05-05T04:39:28.875Z,1008.39
2023-05-05T04:40:28.855Z,1008.34
2023-05-05T04:41:30.109Z,1008.38
2023-05-05T04:42:28.826Z,1008.41
2023-05-05T04:43:28.878Z,1008.41
2023-05-05T04:44:28.843Z,1008.40
2023-05-05T04:45:28.816Z,1008.41
2023-05-05T04:46:28.831Z,1008.36
2023-05-05T04:47:28.831Z,1008.35
2023-05-05T04:48:28.761Z,1008.36
2023-05-05T04:49:28.755Z,1008.37
2023-05-05T04:50:28.789Z,1008.35
2023-05-05T04:51:28.758Z,1008.40
2023-05-05T04:52:28.722Z,1008.44
2023-05-05T04:53:28.719Z,1008.46
2023-05-05T04:54:28.701Z,1008.53
2023-05-05T04:55:28.692Z,1008.54
2023-05-05T04:56:28.744Z,1008.56
2023-05-05T04:57:28.672Z,1008.58
2023-05-05T04:58:28.696Z,1008.56
2023-05-05T04:59:28.713Z,1008.60
2023-05-05T05:00:28.644Z,1008.57
2023-05-05T05:01:28.664Z,1008.65
2023-05-05T05:02:28.651Z,1008.63
2023-05-05T05:03:28.710Z,1008.60
2023-05-05T05:04:28.636Z,1008.64
2023-05-05T05:05:28.588Z,1008.65
2023-05-05T05:06:28.569Z,1008.65
2023-05-05T05:07:28.573Z,1008.66
2023-05-05T05:08:28.546Z,1008.70
2023-05-05T05:09:28.546Z,1008.68
2023-05-05T05:10:29.915Z,1008.68
2023-05-05T05:11:28.552Z,1008.65
2023-05-05T05:12:28.508Z,1008.67
2023-05-05T05:13:28.572Z,1008.68
2023-05-05T05:14:28.506Z,1008.68
2023-05-05T05:15:28.476Z,1008.70
2023-05-05T05:16:28.497Z,1008.76
2023-05-05T05:17:28.464Z,1008.71
2023-05-05T05:18:28.445Z,1008.75
2023-05-05T05:19:28.464Z,1008.81
2023-05-05T05:20:28.420Z,1008.85
2023-05-05T05:21:28.414Z,1008.85
2023-05-05T05:22:28.399Z,1008.85
2023-05-05T05:23:28.401Z,1008.87
2023-05-05T05:24:28.434Z,1008.91
2023-05-05T05:25:28.426Z,1008.90
2023-05-05T05:26:28.363Z,1008.93
2023-05-05T05:27:28.370Z,1008.92
2023-05-05T05:28:28.333Z,1008.96
2023-05-05T05:29:28.326Z,1008.93
2023-05-05T05:30:28.314Z,1008.90
2023-05-05T05:31:28.324Z,1008.90
2023-05-05T05:32:28.360Z,1008.93
2023-05-05T05:33:28.393Z,1008.87
2023-05-05T05:34:31.496Z,1008.89
2023-05-05T05:35:28.340Z,1008.89
2023-05-05T05:36:28.282Z,1008.92
2023-05-05T05:37:28.234Z,1008.91
2023-05-05T05:38:28.252Z,1008.94
2023-05-05T05:39:29.736Z,1008.96
2023-05-05T05:40:28.200Z,1008.94
2023-05-05T05:41:28.245Z,1008.98
2023-05-05T05:42:28.199Z,1008.97
2023-05-05T05:43:28.170Z,1008.96
2023-05-05T05:44:28.168Z,1008.98
2023-05-05T05:45:28.203Z,1009.01
2023-05-05T05:46:28.167Z,1008.98
2023-05-05T05:47:28.176Z,1009.03
2023-05-05T05:48:28.108Z,1009.01
2023-05-05T05:49:28.094Z,1009.01
2023-05-05T05:50:28.087Z,1009.05
2023-05-05T05:51:28.131Z,1009.02
2023-05-05T05:52:28.073Z,1009.02
2023-05-05T05:53:28.053Z,1009.05
2023-05-05T05:54:28.070Z,1009.06
2023-05-05T05:55:28.035Z,1009.08
2023-05-05T05:56:28.033Z,1009.10
2023-05-05T05:57:31.212Z,1009.09
2023-05-05T05:58:28.000Z,1009.11
2023-05-05T05:59:28.004Z,1009.08
2023-05-05T06:00:28.058Z,1009.14
2023-05-05T06:01:28.052Z,1009.14
2023-05-05T06:02:28.005Z,1009.17
2023-05-05T06:03:28.170Z,1009.18
2023-05-05T06:04:27.977Z,1009.13
2023-05-05T06:05:29.817Z,1009.17
2023-05-05T06:06:27.980Z,1009.22
2023-05-05T06:07:27.895Z,1009.20
2023-05-05T06:08:27.897Z,1009.24
2023-05-05T06:09:27.877Z,1009.18
2023-05-05T06:10:28.581Z,1009.15
2023-05-05T06:11:31.983Z,1009.14
2023-05-05T06:12:27.852Z,1009.15
2023-05-05T06:13:27.836Z,1009.17
2023-05-05T06:14:27.838Z,1009.16
2023-05-05T06:15:27.894Z,1009.16
2023-05-05T06:16:27.829Z,1009.24
2023-05-05T06:17:27.789Z,1009.19
2023-05-05T06:18:27.851Z,1009.19
2023-05-05T06:19:28.139Z,1009.19
2023-05-05T06:20:27.767Z,1009.21
2023-05-05T06:21:27.785Z,1009.18
2023-05-05T06:22:27.779Z,1009.21
2023-05-05T06:23:27.760Z,1009.19
2023-05-05T06:24:27.712Z,1009.16
2023-05-05T06:25:27.719Z,1009.11
2023-05-05T06:26:27.696Z,1009.12
2023-05-05T06:27:29.371Z,1009.10
2023-05-05T06:28:27.676Z,1009.10
2023-05-05T06:29:27.663Z,1009.13
2023-05-05T06:30:27.678Z,1009.12
2023-05-05T06:31:27.669Z,1009.17
2023-05-05T06:32:27.694Z,1009.12
2023-05-05T06:33:27.665Z,1009.14
2023-05-05T06:34:27.645Z,1009.12
2023-05-05T06:35:27.607Z,1009.10
2023-05-05T06:36:27.641Z,1009.13
2023-05-05T06:37:27.577Z,1009.08
2023-05-05T06:38:29.449Z,1009.11
2023-05-05T06:39:27.557Z,1009.07
2023-05-05T06:40:27.562Z,1009.07
2023-05-05T06:41:27.539Z,1009.10
2023-05-05T06:42:27.534Z,1009.07
2023-05-05T06:43:27.531Z,1009.07
2023-05-05T06:44:27.560Z,1009.10
2023-05-05T06:45:27.506Z,1009.11
2023-05-05T06:46:27.522Z,1009.16
2023-05-05T06:47:27.497Z,1009.13
2023-05-05T06:48:27.474Z,1009.16
2023-05-05T06:49:29.097Z,1009.09
2023-05-05T06:50:27.454Z,1009.14
2023-05-05T06:51:27.429Z,1009.14
2023-05-05T06:52:27.411Z,1009.12
2023-05-05T06:53:27.455Z,1009.10
2023-05-05T06:54:27.401Z,1009.14
2023-05-05T06:55:27.419Z,1009.07
2023-05-05T06:56:27.372Z,1009.14
2023-05-05T06:57:27.374Z,1009.17
2023-05-05T06:58:27.397Z,1009.18
2023-05-05T06:59:27.357Z,1009.13
2023-05-05T07:00:27.343Z,1009.20
2023-05-05T07:01:27.394Z,1009.14
2023-05-05T07:02:27.403Z,1009.16
2023-05-05T07:03:27.410Z,1009.12
2023-05-05T07:04:31.894Z,1009.20
2023-05-05T07:05:27.320Z,1009.17
2023-05-05T07:06:27.318Z,1009.19
2023-05-05T07:07:27.252Z,1009.20
2023-05-05T07:08:27.274Z,1009.23
2023-05-05T07:09:27.270Z,1009.25
2023-05-05T07:10:27.254Z,1009.25
2023-05-05T07:11:27.209Z,1009.27
2023-05-05T07:12:27.272Z,1009.31
2023-05-05T07:13:28.555Z,1009.34
2023-05-05T07:14:27.181Z,1009.33
2023-05-05T07:15:29.243Z,1009.35
2023-05-05T07:16:27.259Z,1009.39
2023-05-05T07:17:27.181Z,1009.38
2023-05-05T07:18:27.176Z,1009.43
2023-05-05T07:19:27.118Z,1009.40
2023-05-05T07:20:27.217Z,1009.44
2023-05-05T07:21:28.153Z,1009.46
2023-05-05T07:22:27.139Z,1009.49
2023-05-05T07:23:27.084Z,1009.52
2023-05-05T07:24:27.158Z,1009.54
2023-05-05T07:25:28.828Z,1009.60
2023-05-05T07:26:27.060Z,1009.58
2023-05-05T07:27:27.050Z,1009.61
2023-05-05T07:28:27.040Z,1009.61
2023-05-05T07:29:27.055Z,1009.64
2023-05-05T07:30:27.148Z,1009.65
2023-05-05T07:31:27.054Z,1009.68
2023-05-05T07:32:27.021Z,1009.64
2023-05-05T07:33:26.983Z,1009.65
2023-05-05T07:34:28.774Z,1009.63
2023-05-05T07:35:26.968Z,1009.65
2023-05-05T07:36:26.946Z,1009.68
2023-05-05T07:37:26.928Z,1009.69
2023-05-05T07:38:26.912Z,1009.67
2023-05-05T07:39:28.304Z,1009.66
2023-05-05T07:40:26.895Z,1009.68
2023-05-05T07:41:26.884Z,1009.74
2023-05-05T07:42:26.880Z,1009.72
2023-05-05T07:43:28.308Z,1009.73
2023-05-05T07:44:26.878Z,1009.74
2023-05-05T07:45:26.866Z,1009.72
2023-05-05T07:46:26.840Z,1009.76
2023-05-05T07:47:26.903Z,1009.72
2023-05-05T07:48:26.813Z,1009.76
2023-05-05T07:49:26.830Z,1009.78
2023-05-05T07:50:26.786Z,1009.72
2023-05-05T07:51:26.762Z,1009.75
2023-05-05T07:52:43.648Z,1009.78
2023-05-05T07:53:29.298Z,1009.74
2023-05-05T07:54:26.907Z,1009.75
2023-05-05T07:55:26.741Z,1009.74
2023-05-05T07:56:26.760Z,1009.77
2023-05-05T07:57:26.707Z,1009.76
2023-05-05T07:58:26.733Z,1009.73
2023-05-05T07:59:26.695Z,1009.74
2023-05-05T08:00:26.680Z,1009.78
2023-05-05T08:01:26.716Z,1009.75
2023-05-05T08:02:26.805Z,1009.78
2023-05-05T08:03:26.935Z,1009.75
2023-05-05T08:04:26.654Z,1009.76
2023-05-05T08:05:26.643Z,1009.78
2023-05-05T08:06:28.483Z,1009.79
2023-05-05T08:07:26.682Z,1009.74
2023-05-05T08:08:26.595Z,1009.76
2023-05-05T08:09:26.648Z,1009.81
2023-05-05T08:10:26.627Z,1009.81
2023-05-05T08:11:29.005Z,1009.76
2023-05-05T08:12:26.551Z,1009.79
2023-05-05T08:13:26.541Z,1009.81
2023-05-05T08:14:26.542Z,1009.81
2023-05-05T08:15:28.083Z,1009.83
2023-05-05T08:16:26.555Z,1009.80
2023-05-05T08:17:26.544Z,1009.82
2023-05-05T08:18:29.694Z,1009.87
2023-05-05T08:19:29.276Z,1009.83
2023-05-05T08:20:26.500Z,1009.85
2023-05-05T08:21:26.446Z,1009.85
2023-05-05T08:22:26.444Z,1009.82
2023-05-05T08:23:28.230Z,1009.87
2023-05-05T08:24:26.458Z,1009.87
2023-05-05T08:25:26.459Z,1009.80
2023-05-05T08:26:26.420Z,1009.83
2023-05-05T08:27:26.385Z,1009.82
2023-05-05T08:28:28.159Z,1009.81
2023-05-05T08:29:26.371Z,1009.82
2023-05-05T08:30:26.358Z,1009.85
2023-05-05T08:31:26.417Z,1009.90
2023-05-05T08:32:29.088Z,1009.92
2023-05-05T08:33:31.454Z,1009.93
2023-05-05T08:34:26.330Z,1009.90
2023-05-05T08:35:26.318Z,1009.93
2023-05-05T08:36:26.287Z,1009.96
2023-05-05T08:37:26.319Z,1009.91
2023-05-05T08:38:27.927Z,1009.93
2023-05-05T08:39:26.253Z,1009.90
2023-05-05T08:40:26.248Z,1009.94
2023-05-05T08:41:26.252Z,1010.00
2023-05-05T08:42:37.189Z,1009.99
2023-05-05T08:43:27.203Z,1009.91
2023-05-05T08:44:27.904Z,1009.90
2023-05-05T08:45:26.198Z,1009.95
2023-05-05T08:46:26.198Z,1009.93
2023-05-05T08:47:26.174Z,1009.93
2023-05-05T08:48:28.033Z,1009.96
2023-05-05T08:49:26.176Z,1009.92
2023-05-05T08:50:26.133Z,1009.97
2023-05-05T08:51:26.116Z,1009.95
2023-05-05T08:52:26.155Z,1009.88
2023-05-05T08:53:26.089Z,1009.88
2023-05-05T08:54:27.761Z,1009.93
2023-05-05T08:55:26.113Z,1009.89
2023-05-05T08:56:26.067Z,1009.91
2023-05-05T08:57:26.164Z,1009.83
2023-05-05T08:58:28.826Z,1009.87
2023-05-05T08:59:26.028Z,1009.86
2023-05-05T09:00:26.023Z,1009.83
2023-05-05T09:01:26.053Z,1009.90
2023-05-05T09:02:26.079Z,1009.88
2023-05-05T09:03:26.059Z,1009.88
2023-05-05T09:04:25.998Z,1009.87
2023-05-05T09:05:25.986Z,1009.87
2023-05-05T09:06:25.965Z,1009.87
2023-05-05T09:07:25.959Z,1009.86
2023-05-05T09:08:25.968Z,1009.91
2023-05-05T09:09:28.671Z,1009.89
2023-05-05T09:10:25.957Z,1009.86
2023-05-05T09:11:25.925Z,1009.87
2023-05-05T09:12:26.012Z,1009.85
2023-05-05T09:13:25.888Z,1009.79
2023-05-05T09:14:25.922Z,1009.79
2023-05-05T09:15:25.913Z,1009.75
2023-05-05T09:16:25.924Z,1009.75
2023-05-05T09:17:25.881Z,1009.75
2023-05-05T09:18:25.830Z,1009.74
2023-05-05T09:19:25.829Z,1009.77
2023-05-05T09:20:25.830Z,1009.76
2023-05-05T09:21:25.887Z,1009.71
2023-05-05T09:22:25.808Z,1009.74
2023-05-05T09:23:25.780Z,1009.75
2023-05-05T09:24:25.775Z,1009.75
2023-05-05T09:25:25.809Z,1009.82
2023-05-05T09:26:25.757Z,1009.81
2023-05-05T09:27:25.737Z,1009.87
2023-05-05T09:28:25.728Z,1009.83
2023-05-05T09:29:25.745Z,1009.90
2023-05-05T09:30:25.793Z,1009.84
2023-05-05T09:31:27.803Z,1009.88
2023-05-05T09:32:25.762Z,1009.86
2023-05-05T09:33:25.667Z,1009.87
2023-05-05T09:34:25.659Z,1009.87
2023-05-05T09:35:25.652Z,1009.84
2023-05-05T09:36:29.636Z,1009.85
2023-05-05T09:37:25.656Z,1009.86
2023-05-05T09:38:25.644Z,1009.82
2023-05-05T09:39:25.601Z,1009.83
2023-05-05T09:40:25.645Z,1009.82
2023-05-05T09:41:25.593Z,1009.91
2023-05-05T09:42:25.601Z,1009.93
2023-05-05T09:43:25.585Z,1009.86
2023-05-05T09:44:25.545Z,1009.94
2023-05-05T09:45:25.542Z,1009.94
2023-05-05T09:46:25.558Z,1009.95
2023-05-05T09:47:29.435Z,1009.94
2023-05-05T09:48:25.587Z,1010.01
2023-05-05T09:49:25.650Z,1009.99
2023-05-05T09:50:25.487Z,1009.90
2023-05-05T09:51:25.488Z,1009.90
2023-05-05T09:52:25.485Z,1009.96
2023-05-05T09:53:25.528Z,1009.91
2023-05-05T09:54:25.449Z,1009.89
2023-05-05T09:55:25.436Z,1009.91
2023-05-05T09:56:25.420Z,1009.92
2023-05-05T09:57:25.441Z,1009.89
2023-05-05T09:58:27.645Z,1009.87
2023-05-05T09:59:25.394Z,1009.83
2023-05-05T10:00:25.376Z,1009.85
2023-05-05T10:01:25.401Z,1009.80
2023-05-05T10:02:30.838Z,1009.80
2023-05-05T10:03:25.369Z,1009.78
2023-05-05T10:04:25.425Z,1009.78
2023-05-05T10:05:25.441Z,1009.78
2023-05-05T10:06:25.331Z,1009.75
2023-05-05T10:07:25.312Z,1009.75
2023-05-05T10:08:27.420Z,1009.80
2023-05-05T10:09:25.330Z,1009.80
2023-05-05T10:10:27.500Z,1009.83
2023-05-05T10:11:25.280Z,1009.83
2023-05-05T10:12:25.260Z,1009.79
2023-05-05T10:13:25.323Z,1009.85
2023-05-05T10:14:25.220Z,1009.82
2023-05-05T10:15:25.217Z,1009.90
2023-05-05T10:16:26.345Z,1009.86
2023-05-05T10:17:25.192Z,1009.85
2023-05-05T10:18:28.668Z,1009.83
2023-05-05T10:19:25.170Z,1009.81
2023-05-05T10:20:25.169Z,1009.80
2023-05-05T10:21:25.164Z,1009.79
2023-05-05T10:22:25.125Z,1009.82
2023-05-05T10:23:25.118Z,1009.83
2023-05-05T10:24:25.178Z,1009.71
2023-05-05T10:25:25.100Z,1009.73
2023-05-05T10:26:25.084Z,1009.70
2023-05-05T10:27:25.086Z,1009.76
2023-05-05T10:28:25.099Z,1009.75
2023-05-05T10:29:25.119Z,1009.75
2023-05-05T10:30:25.117Z,1009.78
2023-05-05T10:31:26.814Z,1009.78
2023-05-05T10:32:51.176Z,1009.74
2023-05-05T10:33:32.190Z,1009.68
2023-05-05T10:34:25.078Z,1009.69
2023-05-05T10:35:26.952Z,1009.65
2023-05-05T10:36:24.994Z,1009.68
2023-05-05T10:37:24.976Z,1009.65
2023-05-05T10:38:26.792Z,1009.63
2023-05-05T10:39:24.997Z,1009.63
2023-05-05T10:40:24.999Z,1009.61
2023-05-05T10:41:24.945Z,1009.62
2023-05-05T10:42:24.946Z,1009.55
2023-05-05T10:43:24.921Z,1009.53
2023-05-05T10:44:24.930Z,1009.56
2023-05-05T10:45:27.517Z,1009.47
2023-05-05T10:46:24.894Z,1009.47
2023-05-05T10:47:25.003Z,1009.49
2023-05-05T10:48:24.932Z,1009.51
2023-05-05T10:49:24.845Z,1009.47
2023-05-05T10:50:24.866Z,1009.49
2023-05-05T10:51:38.603Z,1009.46
2023-05-05T10:52:25.803Z,1009.39
2023-05-05T10:53:24.839Z,1009.39
2023-05-05T10:54:24.829Z,1009.33
2023-05-05T10:55:24.912Z,1009.33
2023-05-05T10:56:24.789Z,1009.28
2023-05-05T10:57:24.756Z,1009.31
2023-05-05T10:58:24.737Z,1009.27
2023-05-05T10:59:26.444Z,1009.25
2023-05-05T11:00:24.719Z,1009.27
2023-05-05T11:01:24.788Z,1009.22
2023-05-05T11:02:24.924Z,1009.26
2023-05-05T11:03:24.810Z,1009.15
2023-05-05T11:04:24.682Z,1009.13
2023-05-05T11:05:28.234Z,1009.11
2023-05-05T11:06:24.683Z,1009.15
2023-05-05T11:07:24.659Z,1009.10
2023-05-05T11:08:24.630Z,1009.13
2023-05-05T11:09:24.631Z,1009.11
2023-05-05T11:10:27.175Z,1009.08
2023-05-05T11:11:24.600Z,1009.06
2023-05-05T11:12:24.592Z,1009.04
2023-05-05T11:13:24.657Z,1009.00
2023-05-05T11:14:24.571Z,1009.01
2023-05-05T11:15:27.907Z,1008.97
2023-05-05T11:16:24.577Z,1008.96
2023-05-05T11:17:24.612Z,1008.98
2023-05-05T11:18:24.528Z,1008.97
2023-05-05T11:19:24.513Z,1008.93
2023-05-05T11:20:24.585Z,1008.94
2023-05-05T11:21:24.535Z,1008.94
2023-05-05T11:22:24.483Z,1008.93
2023-05-05T11:23:24.521Z,1008.90
2023-05-05T11:24:24.460Z,1008.87
2023-05-05T11:25:24.474Z,1008.87
2023-05-05T11:26:24.438Z,1008.84
2023-05-05T11:27:25.630Z,1008.86
2023-05-05T11:28:24.415Z,1008.77
2023-05-05T11:29:24.406Z,1008.78
2023-05-05T11:30:24.387Z,1008.77
2023-05-05T11:31:29.349Z,1008.70
2023-05-05T11:32:24.461Z,1008.72
2023-05-05T11:33:24.458Z,1008.76
2023-05-05T11:34:24.364Z,1008.70
2023-05-05T11:35:24.346Z,1008.69
2023-05-05T11:36:24.335Z,1008.72
2023-05-05T11:37:24.331Z,1008.77
2023-05-05T11:38:29.268Z,1008.70
2023-05-05T11:39:24.325Z,1008.74
2023-05-05T11:40:24.346Z,1008.70
2023-05-05T11:41:24.286Z,1008.72
2023-05-05T11:42:24.258Z,1008.65
2023-05-05T11:43:24.255Z,1008.60
2023-05-05T11:44:27.888Z,1008.62
2023-05-05T11:45:24.278Z,1008.65
2023-05-05T11:46:24.315Z,1008.68
2023-05-05T11:47:24.204Z,1008.66
2023-05-05T11:48:24.196Z,1008.69
2023-05-05T11:49:24.194Z,1008.71
2023-05-05T11:50:24.462Z,1008.67
2023-05-05T11:51:24.165Z,1008.68
2023-05-05T11:52:24.170Z,1008.71
2023-05-05T11:53:24.151Z,1008.71
2023-05-05T11:54:24.133Z,1008.67
2023-05-05T11:55:24.127Z,1008.71
2023-05-05T11:56:29.715Z,1008.66
2023-05-05T11:57:24.115Z,1008.70
2023-05-05T11:58:24.134Z,1008.67
2023-05-05T11:59:24.142Z,1008.68
2023-05-05T12:00:24.071Z,1008.69
2023-05-05T12:01:24.062Z,1008.69
2023-05-05T12:02:24.162Z,1008.67
2023-05-05T12:03:24.243Z,1008.70
2023-05-05T12:04:24.165Z,1008.68
2023-05-05T12:05:24.019Z,1008.69